GCTS/TFS METAR and TAF weather

Enter ICAO airport designator
Station Type Date Time Source
GCTS METAR 2019/06/17 12:30 UTC NOAA

GCTS 171230Z 22011KT 190V250 9999 FEW035 24/17 Q1020 NOSIG


Station Type Date Time Source
GCTS Decoded METAR 2019/06/17 12:30 UTC NOAA

Tenerife Sur, Spain (GCTS) 28-03N 016-34W 77M
Jun 17, 2019 - 08:30 AM EDT / 2019.06.17 1230 UTC
Wind: from the SW (220 degrees) at 13 MPH (11 KT) (direction variable):0
Visibility: greater than 7 mile(s):0
Sky conditions: mostly clear
Temperature: 75 F (24 C)
Dew Point: 62 F (17 C)
Relative Humidity: 64%
Pressure (altimeter): 30.12 in. Hg (1020 hPa)
ob: GCTS 171230Z 22011KT 190V250 9999 FEW035 24/17 Q1020 NOSIG
cycle: 12

Station Type Date Time Source
GCTS TAF 2019/06/17 09:27 UTC NOAA

TAF GCTS 170800Z 1709/1809 21012KT 9999 FEW035 TX26/1715Z TN18/1806Z
BECMG 1717/1719 08009KT

Example: see airport list